sensor_id;sensor_type;location;lat;lon;timestamp;pressure;altitude;pressure_sealevel;temperature;humidity
69318;BME280;56457;52.190;4.440;2022-08-30T00:00:42;102290.25;;;17.62;100.00
69318;BME280;56457;52.190;4.440;2022-08-30T00:02:01;102292.84;;;17.66;100.00
69318;BME280;56457;52.190;4.440;2022-08-30T00:03:02;102295.50;;;17.66;100.00
69318;BME280;56457;52.190;4.440;2022-08-30T00:04:03;102294.53;;;17.73;100.00
69318;BME280;56457;52.190;4.440;2022-08-30T00:05:08;102286.59;;;17.70;100.00
69318;BME280;56457;52.190;4.440;2022-08-30T00:06:09;102293.66;;;17.73;100.00
69318;BME280;56457;52.190;4.440;2022-08-30T00:07:09;102284.75;;;17.75;100.00
69318;BME280;56457;52.190;4.440;2022-08-30T00:08:10;102287.47;;;17.72;100.00
69318;BME280;56457;52.190;4.440;2022-08-30T00:09:11;102290.06;;;17.75;100.00
69318;BME280;56457;52.190;4.440;2022-08-30T00:10:12;102283.88;;;17.75;100.00
69318;BME280;56457;52.190;4.440;2022-08-30T00:11:16;102286.53;;;17.77;100.00
69318;BME280;56457;52.190;4.440;2022-08-30T00:12:17;102291.75;;;17.83;100.00
69318;BME280;56457;52.190;4.440;2022-08-30T00:13:19;102293.50;;;17.82;100.00
69318;BME280;56457;52.190;4.440;2022-08-30T00:14:20;102289.97;;;17.83;100.00
69318;BME280;56457;52.190;4.440;2022-08-30T00:15:22;102288.16;;;17.87;100.00
69318;BME280;56457;52.190;4.440;2022-08-30T00:16:25;102285.53;;;17.82;100.00
69318;BME280;56457;52.190;4.440;2022-08-30T00:17:25;102280.34;;;17.78;100.00
69318;BME280;56457;52.190;4.440;2022-08-30T00:18:26;102279.38;;;17.82;100.00
69318;BME280;56457;52.190;4.440;2022-08-30T00:19:27;102282.88;;;17.85;100.00
69318;BME280;56457;52.190;4.440;2022-08-30T00:20:30;102279.28;;;17.89;100.00
69318;BME280;56457;52.190;4.440;2022-08-30T00:21:31;102276.59;;;17.91;100.00
69318;BME280;56457;52.190;4.440;2022-08-30T00:22:32;102272.09;;;17.94;100.00
69318;BME280;56457;52.190;4.440;2022-08-30T00:23:32;102276.66;;;17.86;100.00
69318;BME280;56457;52.190;4.440;2022-08-30T00:24:33;102274.06;;;17.82;100.00
69318;BME280;56457;52.190;4.440;2022-08-30T00:25:33;102269.63;;;17.84;100.00
69318;BME280;56457;52.190;4.440;2022-08-30T00:26:34;102267.91;;;17.80;100.00
69318;BME280;56457;52.190;4.440;2022-08-30T00:27:34;102265.28;;;17.78;100.00
69318;BME280;56457;52.190;4.440;2022-08-30T00:28:35;102272.31;;;17.81;100.00
69318;BME280;56457;52.190;4.440;2022-08-30T00:29:36;102274.22;;;17.71;100.00
69318;BME280;56457;52.190;4.440;2022-08-30T00:30:37;102273.31;;;17.73;100.00
69318;BME280;56457;52.190;4.440;2022-08-30T00:31:38;102266.28;;;17.68;100.00
69318;BME280;56457;52.190;4.440;2022-08-30T00:32:39;102268.88;;;17.74;100.00
69318;BME280;56457;52.190;4.440;2022-08-30T00:33:40;102272.41;;;17.74;100.00
69318;BME280;56457;52.190;4.440;2022-08-30T00:34:40;102271.50;;;17.75;100.00
69318;BME280;56457;52.190;4.440;2022-08-30T00:35:41;102272.38;;;17.78;100.00
69318;BME280;56457;52.190;4.440;2022-08-30T00:36:43;102275.91;;;17.78;100.00
69318;BME280;56457;52.190;4.440;2022-08-30T00:37:44;102264.44;;;17.74;100.00
69318;BME280;56457;52.190;4.440;2022-08-30T00:38:45;102269.75;;;17.74;100.00
69318;BME280;56457;52.190;4.440;2022-08-30T00:39:46;102280.38;;;17.74;100.00
69318;BME280;56457;52.190;4.440;2022-08-30T00:40:46;102270.69;;;17.72;100.00
69318;BME280;56457;52.190;4.440;2022-08-30T00:41:47;102271.50;;;17.75;100.00
69318;BME280;56457;52.190;4.440;2022-08-30T00:42:48;102278.53;;;17.80;100.00
69318;BME280;56457;52.190;4.440;2022-08-30T00:43:48;102279.47;;;17.77;100.00
69318;BME280;56457;52.190;4.440;2022-08-30T00:44:50;102278.59;;;17.75;100.00
69318;BME280;56457;52.190;4.440;2022-08-30T00:45:50;102275.06;;;17.74;100.00
69318;BME280;56457;52.190;4.440;2022-08-30T00:46:51;102274.03;;;17.85;100.00
69318;BME280;56457;52.190;4.440;2022-08-30T00:47:51;102284.66;;;17.82;100.00
69318;BME280;56457;52.190;4.440;2022-08-30T00:48:52;102286.28;;;17.93;100.00
69318;BME280;56457;52.190;4.440;2022-08-30T00:49:53;102287.22;;;17.88;100.00
69318;BME280;56457;52.190;4.440;2022-08-30T00:50:59;102278.28;;;17.95;100.00
69318;BME280;56457;52.190;4.440;2022-08-30T00:52:02;102282.63;;;18.00;100.00
69318;BME280;56457;52.190;4.440;2022-08-30T00:53:06;102284.47;;;17.97;100.00
69318;BME280;56457;52.190;4.440;2022-08-30T00:54:09;102281.97;;;17.86;100.00
69318;BME280;56457;52.190;4.440;2022-08-30T00:55:09;102281.13;;;17.84;100.00
69318;BME280;56457;52.190;4.440;2022-08-30T00:56:14;102290.84;;;17.84;100.00
69318;BME280;56457;52.190;4.440;2022-08-30T00:57:15;102282.94;;;17.81;100.00
69318;BME280;56457;52.190;4.440;2022-08-30T00:58:19;102277.69;;;17.78;100.00
69318;BME280;56457;52.190;4.440;2022-08-30T00:59:23;102283.81;;;17.81;100.00
69318;BME280;56457;52.190;4.440;2022-08-30T01:00:24;102278.41;;;17.89;100.00
69318;BME280;56457;52.190;4.440;2022-08-30T01:01:26;102279.38;;;17.83;100.00
69318;BME280;56457;52.190;4.440;2022-08-30T01:02:27;102272.28;;;17.82;100.00
69318;BME280;56457;52.190;4.440;2022-08-30T01:03:30;102275.06;;;17.74;100.00
69318;BME280;56457;52.190;4.440;2022-08-30T01:04:32;102269.72;;;17.78;100.00
69318;BME280;56457;52.190;4.440;2022-08-30T01:05:35;102273.22;;;17.80;100.00
69318;BME280;56457;52.190;4.440;2022-08-30T01:06:38;102273.31;;;17.73;100.00
69318;BME280;56457;52.190;4.440;2022-08-30T01:07:39;102283.91;;;17.73;100.00
69318;BME280;56457;52.190;4.440;2022-08-30T01:08:41;102276.81;;;17.77;100.00
69318;BME280;56457;52.190;4.440;2022-08-30T01:09:41;102269.81;;;17.71;100.00
69318;BME280;56457;52.190;4.440;2022-08-30T01:10:42;102268.91;;;17.72;100.00
69318;BME280;56457;52.190;4.440;2022-08-30T01:11:43;102273.31;;;17.73;100.00
69318;BME280;56457;52.190;4.440;2022-08-30T01:12:45;102275.09;;;17.68;100.00
69318;BME280;56457;52.190;4.440;2022-08-30T01:13:46;102276.94;;;17.63;100.00
69318;BME280;56457;52.190;4.440;2022-08-30T01:14:48;102275.09;;;17.73;100.00
69318;BME280;56457;52.190;4.440;2022-08-30T01:15:50;102277.72;;;17.70;100.00
69318;BME280;56457;52.190;4.440;2022-08-30T01:16:50;102273.34;;;17.67;100.00
69318;BME280;56457;52.190;4.440;2022-08-30T01:17:51;102277.78;;;17.71;100.00
69318;BME280;56457;52.190;4.440;2022-08-30T01:18:55;102279.47;;;17.77;100.00
69318;BME280;56457;52.190;4.440;2022-08-30T01:20:00;102273.19;;;17.81;100.00
69318;BME280;56457;52.190;4.440;2022-08-30T01:23:27;102278.69;;;17.66;100.00
69318;BME280;56457;52.190;4.440;2022-08-30T01:24:29;102276.94;;;17.65;100.00
69318;BME280;56457;52.190;4.440;2022-08-30T01:25:30;102287.50;;;17.68;100.00
69318;BME280;56457;52.190;4.440;2022-08-30T01:26:31;102276.06;;;17.64;100.00
69318;BME280;56457;52.190;4.440;2022-08-30T01:27:36;102274.31;;;17.62;100.00
69318;BME280;56457;52.190;4.440;2022-08-30T01:28:38;102281.31;;;17.67;100.00
69318;BME280;56457;52.190;4.440;2022-08-30T01:29:40;102284.94;;;17.62;100.00
69318;BME280;56457;52.190;4.440;2022-08-30T01:30:44;102282.34;;;17.59;100.00
69318;BME280;56457;52.190;4.440;2022-08-30T01:31:45;102289.31;;;17.66;100.00
69318;BME280;56457;52.190;4.440;2022-08-30T01:32:46;102292.00;;;17.64;100.00
69318;BME280;56457;52.190;4.440;2022-08-30T01:33:47;102283.09;;;17.67;100.00
69318;BME280;56457;52.190;4.440;2022-08-30T01:34:48;102284.03;;;17.64;100.00
69318;BME280;56457;52.190;4.440;2022-08-30T01:36:53;102283.03;;;17.70;100.00
69318;BME280;56457;52.190;4.440;2022-08-30T01:37:53;102284.84;;;17.68;100.00
69318;BME280;56457;52.190;4.440;2022-08-30T01:38:55;102289.38;;;17.61;100.00
69318;BME280;56457;52.190;4.440;2022-08-30T01:39:56;102277.94;;;17.56;100.00
69318;BME280;56457;52.190;4.440;2022-08-30T01:41:07;102278.03;;;17.52;100.00
69318;BME280;56457;52.190;4.440;2022-08-30T01:42:08;102286.91;;;17.47;100.00
69318;BME280;56457;52.190;4.440;2022-08-30T01:43:10;102278.09;;;17.45;100.00
69318;BME280;56457;52.190;4.440;2022-08-30T01:44:12;102291.38;;;17.45;100.00
69318;BME280;56457;52.190;4.440;2022-08-30T01:45:13;102289.66;;;17.41;100.00
69318;BME280;56457;52.190;4.440;2022-08-30T01:46:15;102294.06;;;17.42;100.00
69318;BME280;56457;52.190;4.440;2022-08-30T01:47:17;102290.50;;;17.43;100.00
69318;BME280;56457;52.190;4.440;2022-08-30T01:48:18;102288.75;;;17.42;100.00
69318;BME280;56457;52.190;4.440;2022-08-30T01:49:21;102287.88;;;17.42;100.00
69318;BME280;56457;52.190;4.440;2022-08-30T01:50:21;102286.13;;;17.41;100.00
69318;BME280;56457;52.190;4.440;2022-08-30T01:51:24;102285.09;;;17.49;100.00
69318;BME280;56457;52.190;4.440;2022-08-30T01:52:26;102283.31;;;17.50;100.00
69318;BME280;56457;52.190;4.440;2022-08-30T01:53:27;102280.66;;;17.53;100.00
69318;BME280;56457;52.190;4.440;2022-08-30T01:54:32;102275.34;;;17.53;100.00
69318;BME280;56457;52.190;4.440;2022-08-30T01:55:33;102281.53;;;17.54;100.00
69318;BME280;56457;52.190;4.440;2022-08-30T01:56:35;102278.91;;;17.52;100.00
69318;BME280;56457;52.190;4.440;2022-08-30T01:57:35;102278.00;;;17.53;100.00
69318;BME280;56457;52.190;4.440;2022-08-30T01:58:37;102276.25;;;17.50;100.00
69318;BME280;56457;52.190;4.440;2022-08-30T01:59:40;102275.47;;;17.45;100.00
69318;BME280;56457;52.190;4.440;2022-08-30T02:00:42;102275.38;;;17.50;100.00
69318;BME280;56457;52.190;4.440;2022-08-30T02:01:43;102278.97;;;17.46;100.00
69318;BME280;56457;52.190;4.440;2022-08-30T02:02:43;102278.97;;;17.47;100.00
69318;BME280;56457;52.190;4.440;2022-08-30T02:03:45;102275.50;;;17.41;100.00
69318;BME280;56457;52.190;4.440;2022-08-30T02:04:45;102280.84;;;17.38;100.00
69318;BME280;56457;52.190;4.440;2022-08-30T02:05:45;102277.31;;;17.37;100.00
69318;BME280;56457;52.190;4.440;2022-08-30T02:06:47;102282.59;;;17.40;100.00
69318;BME280;56457;52.190;4.440;2022-08-30T02:07:49;102280.72;;;17.47;100.00
69318;BME280;56457;52.190;4.440;2022-08-30T02:08:50;102276.34;;;17.43;100.00
69318;BME280;56457;52.190;4.440;2022-08-30T02:09:52;102274.63;;;17.39;100.00
69318;BME280;56457;52.190;4.440;2022-08-30T02:10:52;102275.53;;;17.38;100.00
69318;BME280;56457;52.190;4.440;2022-08-30T02:11:53;102280.84;;;17.38;100.00
69318;BME280;56457;52.190;4.440;2022-08-30T02:12:53;102282.69;;;17.31;100.00
69318;BME280;56457;52.190;4.440;2022-08-30T02:13:53;102278.28;;;17.30;100.00
69318;BME280;56457;52.190;4.440;2022-08-30T02:14:54;102284.47;;;17.31;100.00
69318;BME280;56457;52.190;4.440;2022-08-30T02:15:55;102275.63;;;17.33;100.00
69318;BME280;56457;52.190;4.440;2022-08-30T02:16:56;102274.72;;;17.34;100.00
69318;BME280;56457;52.190;4.440;2022-08-30T02:17:56;102273.84;;;17.34;100.00
69318;BME280;56457;52.190;4.440;2022-08-30T02:18:56;102275.53;;;17.38;100.00
69318;BME280;56457;52.190;4.440;2022-08-30T02:19:57;102273.78;;;17.37;100.00
69318;BME280;56457;52.190;4.440;2022-08-30T02:20:58;102278.31;;;17.29;100.00
69318;BME280;56457;52.190;4.440;2022-08-30T02:21:58;102281.84;;;17.29;100.00
69318;BME280;56457;52.190;4.440;2022-08-30T02:22:58;102281.88;;;17.26;100.00
69318;BME280;56457;52.190;4.440;2022-08-30T02:23:59;102278.25;;;17.32;100.00
69318;BME280;56457;52.190;4.440;2022-08-30T02:24:59;102278.25;;;17.35;100.00
69318;BME280;56457;52.190;4.440;2022-08-30T02:26:00;102280.84;;;17.38;100.00
69318;BME280;56457;52.190;4.440;2022-08-30T02:27:00;102281.72;;;17.38;100.00
69318;BME280;56457;52.190;4.440;2022-08-30T02:28:01;102280.91;;;17.35;100.00
69318;BME280;56457;52.190;4.440;2022-08-30T02:29:03;102278.19;;;17.38;100.00
69318;BME280;56457;52.190;4.440;2022-08-30T02:30:07;102274.69;;;17.36;100.00
69318;BME280;56457;52.190;4.440;2022-08-30T02:31:09;102283.53;;;17.35;100.00
69318;BME280;56457;52.190;4.440;2022-08-30T02:32:09;102280.00;;;17.36;100.00
69318;BME280;56457;52.190;4.440;2022-08-30T02:33:10;102279.97;;;17.37;100.00
69318;BME280;56457;52.190;4.440;2022-08-30T02:34:10;102279.09;;;17.37;100.00
69318;BME280;56457;52.190;4.440;2022-08-30T02:35:11;102277.34;;;17.36;100.00
69318;BME280;56457;52.190;4.440;2022-08-30T02:36:12;102275.53;;;17.39;100.00
69318;BME280;56457;52.190;4.440;2022-08-30T02:37:12;102271.16;;;17.35;100.00
69318;BME280;56457;52.190;4.440;2022-08-30T02:38:14;102266.66;;;17.39;100.00
69318;BME280;56457;52.190;4.440;2022-08-30T02:39:15;102273.84;;;17.34;100.00
69318;BME280;56457;52.190;4.440;2022-08-30T02:40:15;102273.84;;;17.34;100.00
69318;BME280;56457;52.190;4.440;2022-08-30T02:41:18;102271.19;;;17.34;100.00
69318;BME280;56457;52.190;4.440;2022-08-30T02:42:19;102279.94;;;17.40;100.00
69318;BME280;56457;52.190;4.440;2022-08-30T02:43:20;102270.19;;;17.41;100.00
69318;BME280;56457;52.190;4.440;2022-08-30T02:44:20;102275.50;;;17.41;100.00
69318;BME280;56457;52.190;4.440;2022-08-30T02:45:21;102260.50;;;17.40;100.00
69318;BME280;56457;52.190;4.440;2022-08-30T02:46:22;102268.44;;;17.41;100.00
69318;BME280;56457;52.190;4.440;2022-08-30T02:47:22;102268.53;;;17.34;100.00
69318;BME280;56457;52.190;4.440;2022-08-30T02:48:23;102261.56;;;17.27;100.00
69318;BME280;56457;52.190;4.440;2022-08-30T02:49:24;102271.19;;;17.32;100.00
69318;BME280;56457;52.190;4.440;2022-08-30T02:50:25;102264.97;;;17.35;100.00
69318;BME280;56457;52.190;4.440;2022-08-30T02:51:25;102265.94;;;17.29;100.00
69318;BME280;56457;52.190;4.440;2022-08-30T02:52:26;102263.34;;;17.25;100.00
69318;BME280;56457;52.190;4.440;2022-08-30T02:53:26;102258.03;;;17.25;100.00
69318;BME280;56457;52.190;4.440;2022-08-30T02:54:26;102256.25;;;17.27;100.00
69318;BME280;56457;52.190;4.440;2022-08-30T02:55:27;102263.31;;;17.26;100.00
69318;BME280;56457;52.190;4.440;2022-08-30T02:56:28;102255.41;;;17.23;100.00
69318;BME280;56457;52.190;4.440;2022-08-30T02:57:28;102256.25;;;17.27;100.00
69318;BME280;56457;52.190;4.440;2022-08-30T02:58:28;102252.63;;;17.32;100.00
69318;BME280;56457;52.190;4.440;2022-08-30T02:59:29;102257.03;;;17.35;100.00
69318;BME280;56457;52.190;4.440;2022-08-30T03:00:30;102262.34;;;17.33;100.00
69318;BME280;56457;52.190;4.440;2022-08-30T03:01:30;102257.94;;;17.31;100.00
69318;BME280;56457;52.190;4.440;2022-08-30T03:02:34;102254.44;;;17.29;100.00
69318;BME280;56457;52.190;4.440;2022-08-30T03:03:35;102256.25;;;17.27;100.00
69318;BME280;56457;52.190;4.440;2022-08-30T03:04:36;102250.97;;;17.23;100.00
69318;BME280;56457;52.190;4.440;2022-08-30T03:05:38;102252.75;;;17.23;100.00
69318;BME280;56457;52.190;4.440;2022-08-30T03:06:40;102250.09;;;17.23;100.00
69318;BME280;56457;52.190;4.440;2022-08-30T03:07:41;102258.09;;;17.18;100.00
69318;BME280;56457;52.190;4.440;2022-08-30T03:08:41;102260.81;;;17.14;100.00
69318;BME280;56457;52.190;4.440;2022-08-30T03:09:42;102251.09;;;17.14;100.00
69318;BME280;56457;52.190;4.440;2022-08-30T03:10:42;102261.63;;;17.19;100.00
69318;BME280;56457;52.190;4.440;2022-08-30T03:11:43;102262.47;;;17.24;100.00
69318;BME280;56457;52.190;4.440;2022-08-30T03:12:44;102258.03;;;17.25;100.00
69318;BME280;56457;52.190;4.440;2022-08-30T03:13:47;102265.16;;;17.19;100.00
69318;BME280;56457;52.190;4.440;2022-08-30T03:14:48;102265.09;;;17.24;100.00
69318;BME280;56457;52.190;4.440;2022-08-30T03:15:49;102260.72;;;17.23;100.00
69318;BME280;56457;52.190;4.440;2022-08-30T03:16:50;102256.31;;;17.22;100.00
69318;BME280;56457;52.190;4.440;2022-08-30T03:17:52;102251.84;;;17.24;100.00
69318;BME280;56457;52.190;4.440;2022-08-30T03:18:53;102258.03;;;17.25;100.00
69318;BME280;56457;52.190;4.440;2022-08-30T03:19:54;102261.66;;;17.17;100.00
69318;BME280;56457;52.190;4.440;2022-08-30T03:20:54;102253.72;;;17.16;100.00
69318;BME280;56457;52.190;4.440;2022-08-30T03:21:55;102248.47;;;17.11;100.00
69318;BME280;56457;52.190;4.440;2022-08-30T03:22:55;102251.13;;;17.11;100.00
69318;BME280;56457;52.190;4.440;2022-08-30T03:23:57;102252.00;;;17.12;100.00
69318;BME280;56457;52.190;4.440;2022-08-30T03:24:57;102251.13;;;17.11;100.00
69318;BME280;56457;52.190;4.440;2022-08-30T03:25:59;102243.19;;;17.10;100.00
69318;BME280;56457;52.190;4.440;2022-08-30T03:26:59;102245.88;;;17.08;100.00
69318;BME280;56457;52.190;4.440;2022-08-30T03:28:00;102250.34;;;17.05;100.00
69318;BME280;56457;52.190;4.440;2022-08-30T03:29:00;102242.41;;;17.02;100.00
69318;BME280;56457;52.190;4.440;2022-08-30T03:30:01;102243.31;;;17.01;100.00
69318;BME280;56457;52.190;4.440;2022-08-30T03:31:02;102247.72;;;17.00;100.00
69318;BME280;56457;52.190;4.440;2022-08-30T03:32:02;102241.59;;;16.95;100.00
69318;BME280;56457;52.190;4.440;2022-08-30T03:33:03;102249.53;;;16.98;100.00
69318;BME280;56457;52.190;4.440;2022-08-30T03:34:03;102240.75;;;16.93;100.00
69318;BME280;56457;52.190;4.440;2022-08-30T03:35:05;102239.00;;;16.92;100.00
69318;BME280;56457;52.190;4.440;2022-08-30T03:36:06;102236.41;;;16.87;100.00
69318;BME280;56457;52.190;4.440;2022-08-30T03:37:06;102239.94;;;16.89;100.00
69318;BME280;56457;52.190;4.440;2022-08-30T03:38:07;102234.66;;;16.86;100.00
69318;BME280;56457;52.190;4.440;2022-08-30T03:39:08;102240.81;;;16.90;100.00
69318;BME280;56457;52.190;4.440;2022-08-30T03:40:09;102233.72;;;16.90;100.00
69318;BME280;56457;52.190;4.440;2022-08-30T03:41:10;102237.22;;;16.95;100.00
69318;BME280;56457;52.190;4.440;2022-08-30T03:42:11;102225.78;;;16.90;100.00
69318;BME280;56457;52.190;4.440;2022-08-30T03:43:11;102236.34;;;16.92;100.00
69318;BME280;56457;52.190;4.440;2022-08-30T03:44:12;102237.19;;;16.97;100.00
69318;BME280;56457;52.190;4.440;2022-08-30T03:45:15;102235.34;;;17.02;100.00
69318;BME280;56457;52.190;4.440;2022-08-30T03:46:15;102233.56;;;17.01;100.00
69318;BME280;56457;52.190;4.440;2022-08-30T03:47:16;102239.78;;;17.00;100.00
69318;BME280;56457;52.190;4.440;2022-08-30T03:48:16;102247.66;;;17.06;100.00
69318;BME280;56457;52.190;4.440;2022-08-30T03:49:18;102239.66;;;17.11;100.00
69318;BME280;56457;52.190;4.440;2022-08-30T03:50:19;102237.03;;;17.09;100.00
69318;BME280;56457;52.190;4.440;2022-08-30T03:51:19;102241.44;;;17.07;100.00
69318;BME280;56457;52.190;4.440;2022-08-30T03:52:20;102240.53;;;17.11;100.00
69318;BME280;56457;52.190;4.440;2022-08-30T03:53:21;102240.50;;;17.13;100.00
69318;BME280;56457;52.190;4.440;2022-08-30T03:54:21;102247.59;;;17.11;100.00
69318;BME280;56457;52.190;4.440;2022-08-30T03:55:22;102246.81;;;17.04;100.00
69318;BME280;56457;52.190;4.440;2022-08-30T03:56:23;102247.72;;;17.00;100.00
69318;BME280;56457;52.190;4.440;2022-08-30T03:57:23;102248.53;;;17.07;100.00
69318;BME280;56457;52.190;4.440;2022-08-30T03:58:24;102247.69;;;17.02;100.00
69318;BME280;56457;52.190;4.440;2022-08-30T03:59:25;102247.69;;;17.05;100.00
69318;BME280;56457;52.190;4.440;2022-08-30T04:00:25;102243.31;;;17.02;100.00
69318;BME280;56457;52.190;4.440;2022-08-30T04:01:26;102245.06;;;17.02;100.00
69318;BME280;56457;52.190;4.440;2022-08-30T04:02:26;102244.19;;;17.01;100.00
69318;BME280;56457;52.190;4.440;2022-08-30T04:03:27;102243.31;;;16.99;100.00
69318;BME280;56457;52.190;4.440;2022-08-30T04:04:28;102240.66;;;17.02;100.00
69318;BME280;56457;52.190;4.440;2022-08-30T04:05:29;102245.91;;;17.05;100.00
69318;BME280;56457;52.190;4.440;2022-08-30T04:06:30;102245.06;;;17.03;100.00
69318;BME280;56457;52.190;4.440;2022-08-30T04:07:30;102244.19;;;17.03;100.00
69318;BME280;56457;52.190;4.440;2022-08-30T04:08:31;102249.47;;;17.03;100.00
69318;BME280;56457;52.190;4.440;2022-08-30T04:09:31;102245.06;;;17.02;100.00
69318;BME280;56457;52.190;4.440;2022-08-30T04:10:31;102250.34;;;17.05;100.00
69318;BME280;56457;52.190;4.440;2022-08-30T04:11:32;102250.28;;;17.09;100.00
69318;BME280;56457;52.190;4.440;2022-08-30T04:12:32;102244.06;;;17.10;100.00
69318;BME280;56457;52.190;4.440;2022-08-30T04:13:33;102244.97;;;17.08;100.00
69318;BME280;56457;52.190;4.440;2022-08-30T04:14:33;102252.06;;;17.07;100.00
69318;BME280;56457;52.190;4.440;2022-08-30T04:15:34;102249.47;;;17.01;100.00
69318;BME280;56457;52.190;4.440;2022-08-30T04:16:34;102251.25;;;17.02;100.00
69318;BME280;56457;52.190;4.440;2022-08-30T04:17:35;102254.75;;;17.04;100.00
69318;BME280;56457;52.190;4.440;2022-08-30T04:18:35;102250.38;;;17.00;100.00
69318;BME280;56457;52.190;4.440;2022-08-30T04:19:36;102251.25;;;17.02;100.00
69318;BME280;56457;52.190;4.440;2022-08-30T04:20:37;102250.41;;;16.99;100.00
69318;BME280;56457;52.190;4.440;2022-08-30T04:21:37;102247.84;;;16.91;100.00
69318;BME280;56457;52.190;4.440;2022-08-30T04:22:38;102249.56;;;16.95;100.00
69318;BME280;56457;52.190;4.440;2022-08-30T04:23:38;102251.34;;;16.96;100.00
69318;BME280;56457;52.190;4.440;2022-08-30T04:24:39;102261.06;;;16.95;100.00
69318;BME280;56457;52.190;4.440;2022-08-30T04:25:40;102249.69;;;16.84;100.00
69318;BME280;56457;52.190;4.440;2022-08-30T04:26:41;102260.28;;;16.86;100.00
69318;BME280;56457;52.190;4.440;2022-08-30T04:27:44;102254.16;;;16.81;100.00
69318;BME280;56457;52.190;4.440;2022-08-30T04:28:44;102256.78;;;16.81;100.00
69318;BME280;56457;52.190;4.440;2022-08-30T04:29:45;102255.91;;;16.83;100.00
69318;BME280;56457;52.190;4.440;2022-08-30T04:30:46;102253.19;;;16.88;100.00
69318;BME280;56457;52.190;4.440;2022-08-30T04:31:47;102253.19;;;16.86;100.00
69318;BME280;56457;52.190;4.440;2022-08-30T04:32:47;102253.22;;;16.85;100.00
69318;BME280;56457;52.190;4.440;2022-08-30T04:33:48;102254.13;;;16.84;100.00
69318;BME280;56457;52.190;4.440;2022-08-30T04:34:48;102249.69;;;16.83;100.00
69318;BME280;56457;52.190;4.440;2022-08-30T04:35:49;102248.81;;;16.84;100.00
69318;BME280;56457;52.190;4.440;2022-08-30T04:36:50;102245.38;;;16.77;100.00
69318;BME280;56457;52.190;4.440;2022-08-30T04:37:50;102244.50;;;16.74;100.00
69318;BME280;56457;52.190;4.440;2022-08-30T04:38:51;102240.06;;;16.76;100.00
69318;BME280;56457;52.190;4.440;2022-08-30T04:39:56;102240.13;;;16.68;100.00
69318;BME280;56457;52.190;4.440;2022-08-30T04:40:56;102249.88;;;16.66;100.00
69318;BME280;56457;52.190;4.440;2022-08-30T04:41:57;102245.44;;;16.71;100.00
69318;BME280;56457;52.190;4.440;2022-08-30T04:42:57;102238.41;;;16.65;100.00
69318;BME280;56457;52.190;4.440;2022-08-30T04:44:00;102245.41;;;16.68;100.00
69318;BME280;56457;52.190;4.440;2022-08-30T04:45:05;102244.53;;;16.67;100.00
69318;BME280;56457;52.190;4.440;2022-08-30T04:46:07;102244.53;;;16.72;100.00
69318;BME280;56457;52.190;4.440;2022-08-30T04:47:08;102248.94;;;16.73;100.00
69318;BME280;56457;52.190;4.440;2022-08-30T04:48:09;102248.94;;;16.68;100.00
69318;BME280;56457;52.190;4.440;2022-08-30T04:49:09;102253.38;;;16.68;100.00
69318;BME280;56457;52.190;4.440;2022-08-30T04:50:13;102250.75;;;16.65;100.00
69318;BME280;56457;52.190;4.440;2022-08-30T04:51:16;102258.72;;;16.63;100.00
69318;BME280;56457;52.190;4.440;2022-08-30T04:52:17;102257.88;;;16.60;100.00
69318;BME280;56457;52.190;4.440;2022-08-30T04:53:18;102263.19;;;16.60;100.00
69318;BME280;56457;52.190;4.440;2022-08-30T04:54:18;102256.09;;;16.62;100.00
69318;BME280;56457;52.190;4.440;2022-08-30T04:55:19;102261.38;;;16.62;100.00
69318;BME280;56457;52.190;4.440;2022-08-30T04:56:21;102268.50;;;16.57;100.00
69318;BME280;56457;52.190;4.440;2022-08-30T04:57:22;102268.53;;;16.54;100.00
69318;BME280;56457;52.190;4.440;2022-08-30T04:58:23;102264.94;;;16.58;100.00
69318;BME280;56457;52.190;4.440;2022-08-30T04:59:24;102267.59;;;16.61;100.00
69318;BME280;56457;52.190;4.440;2022-08-30T05:00:24;102267.66;;;16.53;100.00
69318;BME280;56457;52.190;4.440;2022-08-30T05:01:27;102279.13;;;16.54;100.00
69318;BME280;56457;52.190;4.440;2022-08-30T05:02:28;102274.75;;;16.53;100.00
69318;BME280;56457;52.190;4.440;2022-08-30T05:03:29;102269.41;;;16.54;100.00
69318;BME280;56457;52.190;4.440;2022-08-30T05:04:30;102269.50;;;16.43;100.00
69318;BME280;56457;52.190;4.440;2022-08-30T05:05:30;102266.84;;;16.45;100.00
69318;BME280;56457;52.190;4.440;2022-08-30T05:06:40;102263.19;;;16.57;100.00
69318;BME280;56457;52.190;4.440;2022-08-30T05:07:40;102265.88;;;16.54;100.00
69318;BME280;56457;52.190;4.440;2022-08-30T05:08:40;102264.97;;;16.56;100.00
69318;BME280;56457;52.190;4.440;2022-08-30T05:09:41;102274.66;;;16.57;100.00
69318;BME280;56457;52.190;4.440;2022-08-30T05:10:44;102267.59;;;16.58;100.00
69318;BME280;56457;52.190;4.440;2022-08-30T05:11:45;102264.94;;;16.59;100.00
69318;BME280;56457;52.190;4.440;2022-08-30T05:12:46;102267.53;;;16.65;100.00
69318;BME280;56457;52.190;4.440;2022-08-30T05:13:46;102275.56;;;16.56;100.00
69318;BME280;56457;52.190;4.440;2022-08-30T05:14:47;102264.97;;;16.56;100.00
69318;BME280;56457;52.190;4.440;2022-08-30T05:15:47;102262.25;;;16.62;100.00
69318;BME280;56457;52.190;4.440;2022-08-30T05:16:48;102270.19;;;16.65;100.00
69318;BME280;56457;52.190;4.440;2022-08-30T05:17:48;102273.81;;;16.55;100.00
69318;BME280;56457;52.190;4.440;2022-08-30T05:18:50;102271.16;;;16.55;100.00
69318;BME280;56457;52.190;4.440;2022-08-30T05:19:50;102276.41;;;16.61;100.00